Time;durP1;ratioP1;P1;durP2;ratioP2;P2;SDS_P1;SDS_P2;PMS_P1;PMS_P2;Temp;Humidity;BMP_temperature;BMP_pressure;BME280_temperature;BME280_humidity;BME280_pressure;Samples;Min_cycle;Max_cycle;Signal;HPM_P1;HPM_P2
2022/03/27 00:00:17;;;;;;;40.83;22.33;;;;;;;;;;5078825;28;20023;-92
2022/03/27 00:02:44;;;;;;;45.70;23.88;;;;;;;;;;5078951;28;20021;-92
2022/03/27 00:05:11;;;;;;;46.92;24.52;;;;;;;;;;5079075;28;20024;-91
2022/03/27 00:07:38;;;;;;;49.22;25.95;;;;;;;;;;5078781;28;20036;-91
2022/03/27 00:10:04;;;;;;;51.33;27.52;;;;;;;;;;5078897;28;20020;-91
2022/03/27 00:12:31;;;;;;;45.33;26.23;;;;;;;;;;5078820;28;20046;-91
2022/03/27 00:14:58;;;;;;;48.70;25.52;;;;;;;;;;5077554;28;20024;-91
2022/03/27 00:17:42;;;;;;;53.08;26.98;;;;;;;;;;5078393;28;20044;-91
2022/03/27 00:20:09;;;;;;;48.00;25.63;;;;;;;;;;5077576;28;20078;-91
2022/03/27 00:22:36;;;;;;;47.78;25.70;;;;;;;;;;5079050;28;20062;-89
2022/03/27 00:25:07;;;;;;;57.70;26.70;;;;;;;;;;5077655;28;20051;-90
2022/03/27 00:27:34;;;;;;;52.33;27.20;;;;;;;;;;5078673;28;20108;-91
2022/03/27 00:30:00;;;;;;;55.42;28.42;;;;;;;;;;5077696;28;20029;-91
2022/03/27 00:32:26;;;;;;;54.13;27.83;;;;;;;;;;5078309;28;20044;-91
2022/03/27 00:34:53;;;;;;;49.53;26.55;;;;;;;;;;5078450;28;20016;-91
2022/03/27 00:37:19;;;;;;;50.65;27.25;;;;;;;;;;5078191;28;20040;-92
2022/03/27 00:39:45;;;;;;;45.38;26.38;;;;;;;;;;5078462;28;20024;-91
2022/03/27 00:42:11;;;;;;;48.72;26.63;;;;;;;;;;5077030;28;20059;-89
2022/03/27 00:44:38;;;;;;;54.85;27.63;;;;;;;;;;5078160;28;20110;-91
2022/03/27 00:47:05;;;;;;;53.60;27.40;;;;;;;;;;5077258;28;20032;-91
2022/03/27 00:49:32;;;;;;;46.53;26.80;;;;;;;;;;5060909;28;20430;-91
2022/03/27 00:51:58;;;;;;;49.42;28.70;;;;;;;;;;5077872;28;20115;-92
2022/03/27 00:54:24;;;;;;;46.25;27.48;;;;;;;;;;5077925;28;20439;-90
2022/03/27 00:56:50;;;;;;;52.38;27.50;;;;;;;;;;5077066;28;20119;-92
2022/03/27 00:59:16;;;;;;;50.75;25.02;;;;;;;;;;5077838;28;20029;-91
2022/03/27 01:01:44;;;;;;;44.25;25.95;;;;;;;;;;5077699;28;20040;-91
2022/03/27 01:04:10;;;;;;;47.55;25.95;;;;;;;;;;5076848;28;20033;-91
2022/03/27 01:06:44;;;;;;;43.55;24.95;;;;;;;;;;5076954;28;20036;-91
2022/03/27 01:12:05;;;;;;;51.13;26.42;;;;;;;;;;5077735;28;20052;-91
2022/03/27 01:14:32;;;;;;;51.30;25.65;;;;;;;;;;5077589;28;20017;-91
2022/03/27 01:17:01;;;;;;;47.15;25.63;;;;;;;;;;5077585;28;20028;-92
2022/03/27 01:19:28;;;;;;;45.90;26.83;;;;;;;;;;5078079;28;20319;-92
2022/03/27 01:21:54;;;;;;;48.75;25.85;;;;;;;;;;5077819;28;20044;-91
2022/03/27 01:24:20;;;;;;;45.70;25.33;;;;;;;;;;5076626;28;20055;-91
2022/03/27 01:26:46;;;;;;;46.88;25.35;;;;;;;;;;5077590;28;20029;-90
2022/03/27 01:29:12;;;;;;;49.40;24.80;;;;;;;;;;5076549;28;20028;-91
2022/03/27 01:31:39;;;;;;;45.17;24.70;;;;;;;;;;5077688;28;20066;-92
2022/03/27 01:34:05;;;;;;;53.80;28.67;;;;;;;;;;5077513;28;20017;-93
2022/03/27 01:36:35;;;;;;;49.72;28.63;;;;;;;;;;5076610;28;20112;-92
2022/03/27 01:39:05;;;;;;;51.47;27.13;;;;;;;;;;5077678;28;20043;-91
2022/03/27 01:41:31;;;;;;;52.20;29.45;;;;;;;;;;5077357;28;20106;-91
2022/03/27 01:43:58;;;;;;;52.90;30.25;;;;;;;;;;5077288;28;20024;-93
2022/03/27 01:46:25;;;;;;;67.50;34.90;;;;;;;;;;5077682;28;20031;-93
2022/03/27 01:48:51;;;;;;;67.97;34.35;;;;;;;;;;5077233;28;20016;-92
2022/03/27 01:51:17;;;;;;;68.00;34.75;;;;;;;;;;5077291;28;20025;-91
2022/03/27 01:53:43;;;;;;;71.70;32.50;;;;;;;;;;5077235;28;20021;-92
2022/03/27 01:56:09;;;;;;;52.95;29.65;;;;;;;;;;5077417;28;20368;-92
2022/03/27 01:58:39;;;;;;;49.40;28.98;;;;;;;;;;5077363;28;20414;-92
2022/03/27 02:01:06;;;;;;;51.75;27.67;;;;;;;;;;5076262;28;20411;-92
2022/03/27 02:03:32;;;;;;;47.88;26.42;;;;;;;;;;5077191;28;20032;-91
2022/03/27 02:05:58;;;;;;;48.97;27.77;;;;;;;;;;5076361;28;20033;-92
2022/03/27 02:08:24;;;;;;;48.55;28.13;;;;;;;;;;5076851;28;20031;-90
2022/03/27 02:10:50;;;;;;;51.47;27.88;;;;;;;;;;5077149;28;20111;-90
2022/03/27 02:13:21;;;;;;;46.53;26.02;;;;;;;;;;5076168;28;20028;-92
2022/03/27 02:15:48;;;;;;;50.63;27.77;;;;;;;;;;5077479;28;20021;-91
2022/03/27 02:18:14;;;;;;;50.70;28.20;;;;;;;;;;5076227;28;20017;-91
2022/03/27 02:20:40;;;;;;;48.97;27.30;;;;;;;;;;5077058;28;20108;-92
2022/03/27 02:23:09;;;;;;;50.60;28.20;;;;;;;;;;5076231;28;20115;-91
2022/03/27 02:25:35;;;;;;;49.22;26.85;;;;;;;;;;5077140;28;20020;-91
2022/03/27 02:28:03;;;;;;;47.28;27.30;;;;;;;;;;5077017;28;20100;-90
2022/03/27 02:30:29;;;;;;;47.65;26.77;;;;;;;;;;5077053;28;20020;-91
2022/03/27 02:32:56;;;;;;;46.17;25.83;;;;;;;;;;5077109;28;20108;-91
2022/03/27 02:35:22;;;;;;;48.08;26.75;;;;;;;;;;5077279;28;20016;-91
2022/03/27 02:37:48;;;;;;;46.58;26.80;;;;;;;;;;5076038;28;20027;-91
2022/03/27 02:40:15;;;;;;;47.75;25.95;;;;;;;;;;5079963;28;20024;-91
2022/03/27 02:42:42;;;;;;;46.80;26.00;;;;;;;;;;5080081;28;20052;-91
2022/03/27 02:45:08;;;;;;;52.38;26.83;;;;;;;;;;5080408;28;20028;-93
2022/03/27 02:47:34;;;;;;;47.53;25.73;;;;;;;;;;5080667;28;20031;-92
2022/03/27 02:50:01;;;;;;;52.17;26.73;;;;;;;;;;5079494;28;20028;-92
2022/03/27 02:52:27;;;;;;;59.92;28.35;;;;;;;;;;5080261;28;20094;-91
2022/03/27 02:54:53;;;;;;;56.90;27.27;;;;;;;;;;5080747;28;20122;-91
2022/03/27 02:57:19;;;;;;;47.03;25.98;;;;;;;;;;5080429;28;20024;-91
2022/03/27 02:59:46;;;;;;;42.13;24.88;;;;;;;;;;5079330;28;20028;-91
2022/03/27 03:02:12;;;;;;;47.58;25.48;;;;;;;;;;5080451;28;20157;-93
2022/03/27 03:04:38;;;;;;;51.03;25.63;;;;;;;;;;5080232;28;20028;-91
2022/03/27 03:07:04;;;;;;;50.17;25.33;;;;;;;;;;5080115;28;20025;-92
2022/03/27 03:09:30;;;;;;;44.63;24.95;;;;;;;;;;5080015;28;20032;-92
2022/03/27 03:11:56;;;;;;;52.17;26.00;;;;;;;;;;5080106;28;20078;-92
2022/03/27 03:14:22;;;;;;;44.88;25.33;;;;;;;;;;5080153;28;20468;-93
2022/03/27 03:16:49;;;;;;;50.20;24.38;;;;;;;;;;5079035;28;20021;-92
2022/03/27 03:19:15;;;;;;;45.28;24.83;;;;;;;;;;5079769;28;20414;-91
2022/03/27 03:21:41;;;;;;;48.92;25.00;;;;;;;;;;5079894;28;20028;-91
2022/03/27 03:24:08;;;;;;;45.75;24.55;;;;;;;;;;5079528;28;20036;-93
2022/03/27 03:26:35;;;;;;;49.00;24.83;;;;;;;;;;5079693;28;20107;-91
2022/03/27 03:29:01;;;;;;;43.90;23.98;;;;;;;;;;5078747;28;20025;-92
2022/03/27 03:31:27;;;;;;;45.00;24.25;;;;;;;;;;5079351;28;20107;-91
2022/03/27 03:33:53;;;;;;;46.38;24.38;;;;;;;;;;5078838;28;20020;-92
2022/03/27 03:36:19;;;;;;;46.10;24.13;;;;;;;;;;5079727;28;20036;-93
2022/03/27 03:38:45;;;;;;;43.78;22.67;;;;;;;;;;5079470;28;20020;-93
2022/03/27 03:41:11;;;;;;;42.55;23.85;;;;;;;;;;5079278;28;20044;-93
2022/03/27 03:43:38;;;;;;;42.05;23.58;;;;;;;;;;5078507;28;20062;-94
2022/03/27 03:46:04;;;;;;;47.05;24.88;;;;;;;;;;5079172;28;20354;-93
2022/03/27 03:48:31;;;;;;;45.08;22.80;;;;;;;;;;5079008;28;20310;-93
2022/03/27 03:50:57;;;;;;;41.85;22.58;;;;;;;;;;5079171;28;20024;-93
2022/03/27 03:53:24;;;;;;;44.63;23.90;;;;;;;;;;5079334;28;20028;-93
2022/03/27 03:55:50;;;;;;;45.05;23.58;;;;;;;;;;5078217;28;20021;-93
2022/03/27 03:58:16;;;;;;;43.25;22.58;;;;;;;;;;5079337;28;20035;-93
2022/03/27 04:00:42;;;;;;;43.08;22.77;;;;;;;;;;5078986;28;20031;-90
2022/03/27 04:03:09;;;;;;;44.35;22.90;;;;;;;;;;5078092;28;20062;-91
2022/03/27 04:05:36;;;;;;;43.80;23.05;;;;;;;;;;5078997;28;20055;-90
2022/03/27 04:08:02;;;;;;;41.47;22.08;;;;;;;;;;5078073;28;20124;-92
2022/03/27 04:10:28;;;;;;;41.78;22.20;;;;;;;;;;5078751;28;20165;-95
2022/03/27 04:12:54;;;;;;;42.38;22.45;;;;;;;;;;5078742;28;20422;-93
2022/03/27 04:15:21;;;;;;;46.38;22.83;;;;;;;;;;5078185;28;20032;-93
2022/03/27 04:17:48;;;;;;;45.47;22.60;;;;;;;;;;5078754;28;20027;-93
2022/03/27 04:20:14;;;;;;;40.22;21.77;;;;;;;;;;5078919;28;20399;-92
2022/03/27 04:22:41;;;;;;;44.47;23.10;;;;;;;;;;5070677;28;20031;-92
2022/03/27 04:25:08;;;;;;;43.75;22.38;;;;;;;;;;5058657;28;20025;-91
2022/03/27 04:27:34;;;;;;;44.45;22.38;;;;;;;;;;5058870;28;20381;-92
2022/03/27 04:30:01;;;;;;;42.10;22.77;;;;;;;;;;5058746;28;20026;-91
2022/03/27 04:32:27;;;;;;;45.50;23.23;;;;;;;;;;5058441;28;20107;-89
2022/03/27 04:34:53;;;;;;;42.05;22.15;;;;;;;;;;5058556;28;20036;-90
2022/03/27 04:37:19;;;;;;;40.60;22.33;;;;;;;;;;5057724;28;20017;-90
2022/03/27 04:39:45;;;;;;;49.58;26.13;;;;;;;;;;5058674;28;20021;-90
2022/03/27 04:42:11;;;;;;;48.90;23.98;;;;;;;;;;5057135;28;20060;-95
2022/03/27 04:44:37;;;;;;;50.22;23.30;;;;;;;;;;5058646;28;20062;-94
2022/03/27 04:47:05;;;;;;;45.33;22.60;;;;;;;;;;5058926;28;20039;-92
2022/03/27 04:49:31;;;;;;;39.70;21.95;;;;;;;;;;5058192;28;20025;-91
2022/03/27 04:51:58;;;;;;;41.40;20.95;;;;;;;;;;5058430;28;20051;-90
2022/03/27 04:54:24;;;;;;;41.95;20.73;;;;;;;;;;5058274;28;20104;-91
2022/03/27 04:56:50;;;;;;;43.20;22.45;;;;;;;;;;5057101;28;20021;-92
2022/03/27 04:59:17;;;;;;;39.40;21.73;;;;;;;;;;5058034;28;20021;-91
2022/03/27 05:01:43;;;;;;;38.42;20.95;;;;;;;;;;5056473;28;20025;-91
2022/03/27 05:04:10;;;;;;;38.60;19.90;;;;;;;;;;5057934;28;20021;-92
2022/03/27 05:06:36;;;;;;;42.88;19.95;;;;;;;;;;5058139;28;20025;-91
2022/03/27 05:09:02;;;;;;;39.28;19.65;;;;;;;;;;5057759;28;20028;-92
2022/03/27 05:11:29;;;;;;;40.88;19.98;;;;;;;;;;5057886;28;20052;-91
2022/03/27 05:13:55;;;;;;;37.25;19.90;;;;;;;;;;5056983;28;20021;-92
2022/03/27 05:16:21;;;;;;;35.35;19.08;;;;;;;;;;5056806;28;20388;-92
2022/03/27 05:18:48;;;;;;;34.75;18.17;;;;;;;;;;5057836;28;20025;-92
2022/03/27 05:21:15;;;;;;;38.85;19.23;;;;;;;;;;5057649;28;20043;-91
2022/03/27 05:23:42;;;;;;;37.55;19.50;;;;;;;;;;5057684;28;20033;-91
2022/03/27 05:26:08;;;;;;;40.67;19.92;;;;;;;;;;5057612;28;20029;-90
2022/03/27 05:28:34;;;;;;;36.72;19.98;;;;;;;;;;5056778;28;20025;-90
2022/03/27 05:31:02;;;;;;;35.35;18.60;;;;;;;;;;5057317;28;20100;-92
2022/03/27 05:33:28;;;;;;;34.92;18.85;;;;;;;;;;5057551;28;20427;-92
2022/03/27 05:35:55;;;;;;;41.35;19.80;;;;;;;;;;5056555;28;20434;-93
2022/03/27 05:38:21;;;;;;;38.00;19.52;;;;;;;;;;5057386;28;20411;-90
2022/03/27 05:40:47;;;;;;;37.13;19.58;;;;;;;;;;5057514;28;20029;-90
2022/03/27 05:43:13;;;;;;;43.03;19.60;;;;;;;;;;5056528;28;20068;-91
2022/03/27 05:45:40;;;;;;;42.30;19.40;;;;;;;;;;5056354;28;20029;-90
2022/03/27 05:48:07;;;;;;;39.33;18.98;;;;;;;;;;5057480;28;20029;-90
2022/03/27 05:50:33;;;;;;;35.58;19.08;;;;;;;;;;5057503;28;20025;-93
2022/03/27 05:52:59;;;;;;;36.95;18.90;;;;;;;;;;5057414;28;20116;-92
2022/03/27 05:55:25;;;;;;;36.45;18.50;;;;;;;;;;5056330;28;20024;-94
2022/03/27 05:57:51;;;;;;;37.97;18.55;;;;;;;;;;5057227;28;20020;-92
2022/03/27 06:00:21;;;;;;;37.38;19.73;;;;;;;;;;5056372;28;20021;-95
2022/03/27 06:02:48;;;;;;;35.95;19.55;;;;;;;;;;5057430;28;20024;-92
2022/03/27 06:05:17;;;;;;;34.63;17.58;;;;;;;;;;5057230;28;20029;-92
2022/03/27 06:07:47;;;;;;;36.35;17.42;;;;;;;;;;5056390;28;20083;-93
2022/03/27 06:10:14;;;;;;;40.75;18.90;;;;;;;;;;5057268;28;20028;-92
2022/03/27 06:12:40;;;;;;;39.28;18.60;;;;;;;;;;5056114;28;20029;-91
2022/03/27 06:15:07;;;;;;;35.72;18.23;;;;;;;;;;5059969;28;20089;-90
2022/03/27 06:20:38;;;;;;;37.22;17.73;;;;;;;;;;5064045;28;20039;-90
2022/03/27 06:23:06;;;;;;;36.50;16.77;;;;;;;;;;5059963;28;20031;-88
2022/03/27 06:25:32;;;;;;;30.88;16.83;;;;;;;;;;5072657;28;20028;-93
2022/03/27 06:27:58;;;;;;;34.40;19.50;;;;;;;;;;5065217;28;20028;-89
2022/03/27 06:30:26;;;;;;;32.78;17.17;;;;;;;;;;5068909;28;20066;-91
2022/03/27 06:32:53;;;;;;;29.88;16.35;;;;;;;;;;5060648;28;20094;-92
2022/03/27 06:35:20;;;;;;;26.98;15.07;;;;;;;;;;5080205;28;20016;-89
2022/03/27 06:37:46;;;;;;;58.10;15.23;;;;;;;;;;5080704;28;20016;-93
2022/03/27 06:40:13;;;;;;;20.30;11.13;;;;;;;;;;5080653;28;20024;-93
2022/03/27 06:42:40;;;;;;;23.58;12.10;;;;;;;;;;5080383;28;20394;-93
2022/03/27 06:45:06;;;;;;;22.08;12.70;;;;;;;;;;5081039;28;20025;-93
2022/03/27 06:47:33;;;;;;;27.27;14.73;;;;;;;;;;5079723;28;20429;-92
2022/03/27 06:50:00;;;;;;;51.95;19.40;;;;;;;;;;5080595;28;20028;-93
2022/03/27 06:52:27;;;;;;;34.83;17.25;;;;;;;;;;5079436;28;20052;-92
2022/03/27 06:54:54;;;;;;;22.45;12.82;;;;;;;;;;5080210;28;20023;-92
2022/03/27 06:57:20;;;;;;;21.77;10.85;;;;;;;;;;5080201;28;20096;-90
2022/03/27 07:05:16;;;;;;;33.58;15.35;;;;;;;;;;5080519;28;20156;-90
2022/03/27 07:07:43;;;;;;;33.90;12.00;;;;;;;;;;5079619;28;20043;-92
2022/03/27 07:10:10;;;;;;;18.50;10.30;;;;;;;;;;5080046;28;20034;-90
2022/03/27 07:12:37;;;;;;;25.58;13.05;;;;;;;;;;5079747;28;20097;-90
2022/03/27 07:15:03;;;;;;;25.15;12.45;;;;;;;;;;5080126;28;20017;-91
2022/03/27 07:17:48;;;;;;;27.20;10.65;;;;;;;;;;5079954;28;20065;-90
2022/03/27 07:20:25;;;;;;;33.30;10.73;;;;;;;;;;5078907;28;20035;-93
2022/03/27 07:22:52;;;;;;;20.67;10.43;;;;;;;;;;5079275;28;20037;-89
2022/03/27 07:25:19;;;;;;;16.02;9.68;;;;;;;;;;5064236;28;20052;-90
2022/03/27 07:27:45;;;;;;;17.35;10.23;;;;;;;;;;5059583;28;20029;-92
2022/03/27 07:30:11;;;;;;;16.00;8.98;;;;;;;;;;5059535;28;20021;-91
2022/03/27 07:32:39;;;;;;;14.88;9.18;;;;;;;;;;5058467;28;20047;-94
2022/03/27 07:35:06;;;;;;;17.10;9.35;;;;;;;;;;5058417;28;20021;-91
2022/03/27 07:37:34;;;;;;;17.35;9.65;;;;;;;;;;5058733;28;20060;-91
2022/03/27 07:40:03;;;;;;;20.52;8.93;;;;;;;;;;5059758;28;20032;-91
2022/03/27 07:42:29;;;;;;;16.55;8.60;;;;;;;;;;5058212;28;20049;-91
2022/03/27 07:44:55;;;;;;;16.25;9.07;;;;;;;;;;5059760;28;20029;-90
2022/03/27 07:47:21;;;;;;;12.35;8.15;;;;;;;;;;5059575;28;20020;-91
2022/03/27 07:49:47;;;;;;;16.92;8.93;;;;;;;;;;5059183;28;20048;-90
2022/03/27 07:52:14;;;;;;;14.65;8.27;;;;;;;;;;5057979;28;20017;-91
2022/03/27 07:54:41;;;;;;;14.55;8.80;;;;;;;;;;5059174;28;20036;-91
2022/03/27 07:57:07;;;;;;;14.43;8.18;;;;;;;;;;5058038;28;20108;-91
2022/03/27 07:59:34;;;;;;;11.52;7.70;;;;;;;;;;5059451;28;20407;-90
2022/03/27 08:02:00;;;;;;;11.32;8.27;;;;;;;;;;5059295;28;20045;-90
2022/03/27 08:04:26;;;;;;;16.35;8.35;;;;;;;;;;5058945;28;20020;-91
2022/03/27 08:06:52;;;;;;;19.02;8.48;;;;;;;;;;5059132;28;20025;-92
2022/03/27 08:09:18;;;;;;;14.40;8.70;;;;;;;;;;5059064;28;20024;-91
2022/03/27 08:11:45;;;;;;;13.75;8.07;;;;;;;;;;5058644;28;20407;-91
2022/03/27 08:14:11;;;;;;;15.05;7.88;;;;;;;;;;5057915;28;20029;-91
2022/03/27 08:16:37;;;;;;;15.75;10.10;;;;;;;;;;5059198;28;20330;-92
2022/03/27 08:19:04;;;;;;;11.68;7.43;;;;;;;;;;5057938;28;20029;-93
2022/03/27 08:21:30;;;;;;;14.50;7.18;;;;;;;;;;5059033;28;20021;-91
2022/03/27 08:23:57;;;;;;;10.80;6.70;;;;;;;;;;5058695;28;20411;-92
2022/03/27 08:29:08;;;;;;;16.58;9.68;;;;;;;;;;5058773;28;20080;-91
2022/03/27 08:31:34;;;;;;;19.15;9.85;;;;;;;;;;5058293;28;20024;-92
2022/03/27 08:34:00;;;;;;;12.13;6.60;;;;;;;;;;5058325;28;20021;-90
2022/03/27 08:36:27;;;;;;;13.63;6.30;;;;;;;;;;5056758;28;20060;-90
2022/03/27 08:38:54;;;;;;;14.60;6.72;;;;;;;;;;5059167;28;20044;-91
2022/03/27 08:41:24;;;;;;;18.88;7.57;;;;;;;;;;5057341;28;20045;-94
2022/03/27 08:43:58;;;;;;;10.05;6.00;;;;;;;;;;5058541;28;20322;-92
2022/03/27 08:46:25;;;;;;;12.02;6.30;;;;;;;;;;5058305;28;20391;-94
2022/03/27 08:48:51;;;;;;;10.65;4.95;;;;;;;;;;5057853;28;20458;-93
2022/03/27 08:51:28;;;;;;;11.23;6.00;;;;;;;;;;5057856;28;20116;-93
2022/03/27 08:54:05;;;;;;;10.20;5.10;;;;;;;;;;5058222;28;20075;-94
2022/03/27 08:56:32;;;;;;;14.55;5.70;;;;;;;;;;5069509;28;20032;-96
2022/03/27 08:59:03;;;;;;;9.77;5.13;;;;;;;;;;5064786;28;20104;-95
2022/03/27 09:01:29;;;;;;;12.97;6.40;;;;;;;;;;5067291;28;20021;-94
2022/03/27 09:03:55;;;;;;;18.08;8.50;;;;;;;;;;5064057;28;20269;-96
2022/03/27 09:09:00;;;;;;;9.40;5.15;;;;;;;;;;4999673;23;20051;-94
2022/03/27 09:11:28;;;;;;;9.15;4.90;;;;;;;;;;4978961;28;20110;-96
2022/03/27 09:13:56;;;;;;;9.05;5.18;;;;;;;;;;4982699;28;20027;-93
2022/03/27 09:16:22;;;;;;;9.43;4.85;;;;;;;;;;4979732;28;20417;-93
2022/03/27 09:18:53;;;;;;;9.05;4.40;;;;;;;;;;4979113;28;20317;-94
2022/03/27 09:21:20;;;;;;;10.95;4.45;;;;;;;;;;4979436;28;20106;-94
2022/03/27 09:23:51;;;;;;;7.45;4.60;;;;;;;;;;4980049;28;20023;-94
2022/03/27 09:26:17;;;;;;;11.43;4.40;;;;;;;;;;4977543;28;20125;-93
2022/03/27 09:28:48;;;;;;;9.18;3.47;;;;;;;;;;4978084;28;20071;-91
2022/03/27 09:31:14;;;;;;;9.27;5.22;;;;;;;;;;4979062;28;20070;-94
2022/03/27 09:33:47;;;;;;;11.98;4.18;;;;;;;;;;4978869;28;20026;-94
2022/03/27 09:36:13;;;;;;;8.30;4.75;;;;;;;;;;4977802;28;20426;-92
2022/03/27 09:38:39;;;;;;;9.07;5.72;;;;;;;;;;4979007;28;20417;-92
2022/03/27 09:41:07;;;;;;;12.75;4.75;;;;;;;;;;4980150;28;20109;-93
2022/03/27 09:43:33;;;;;;;9.25;4.30;;;;;;;;;;4979417;28;20066;-91
2022/03/27 09:46:03;;;;;;;7.38;4.32;;;;;;;;;;4977686;28;20125;-92
2022/03/27 09:48:31;;;;;;;9.50;4.45;;;;;;;;;;4980694;28;20126;-94
2022/03/27 09:51:01;;;;;;;43.08;10.95;;;;;;;;;;4982698;28;20027;-94
2022/03/27 09:53:28;;;;;;;46.63;11.68;;;;;;;;;;4982824;28;20027;-93
2022/03/27 09:56:10;;;;;;;51.20;19.65;;;;;;;;;;4982712;28;20026;-92
2022/03/27 09:58:46;;;;;;;21.95;10.18;;;;;;;;;;4984585;28;20046;-93
2022/03/27 10:01:12;;;;;;;10.80;6.72;;;;;;;;;;4982457;28;20046;-92
2022/03/27 10:03:59;;;;;;;13.43;4.80;;;;;;;;;;5000592;28;20076;-92
2022/03/27 10:06:38;;;;;;;11.10;5.00;;;;;;;;;;5000238;28;20373;-92
2022/03/27 10:09:05;;;;;;;8.30;5.47;;;;;;;;;;5000635;28;20047;-92
2022/03/27 10:11:32;;;;;;;22.83;11.27;;;;;;;;;;5001257;28;20105;-91
2022/03/27 10:13:59;;;;;;;28.55;10.50;;;;;;;;;;5001220;28;20084;-93
2022/03/27 10:16:28;;;;;;;27.85;9.68;;;;;;;;;;5000423;28;20413;-92
2022/03/27 10:18:55;;;;;;;10.77;5.55;;;;;;;;;;5001309;28;20026;-93
2022/03/27 10:21:26;;;;;;;16.15;5.85;;;;;;;;;;5003122;28;20041;-93
2022/03/27 10:23:55;;;;;;;9.93;5.70;;;;;;;;;;5001533;28;20073;-93
2022/03/27 10:26:22;;;;;;;9.38;4.82;;;;;;;;;;5002033;28;20450;-92
2022/03/27 10:28:50;;;;;;;12.95;8.18;;;;;;;;;;5003006;28;20074;-92
2022/03/27 10:31:17;;;;;;;9.40;5.20;;;;;;;;;;5000632;28;20031;-92
2022/03/27 10:33:43;;;;;;;12.95;6.07;;;;;;;;;;5001458;28;20050;-92
2022/03/27 10:36:20;;;;;;;15.57;7.30;;;;;;;;;;5000374;28;20406;-92
2022/03/27 10:39:05;;;;;;;18.38;9.30;;;;;;;;;;5001108;28;20030;-94
2022/03/27 10:41:34;;;;;;;23.15;11.90;;;;;;;;;;5001242;28;20018;-93
2022/03/27 10:44:04;;;;;;;13.38;7.20;;;;;;;;;;5002724;28;20032;-84
2022/03/27 10:46:30;;;;;;;12.45;7.68;;;;;;;;;;4999942;28;20018;-83
2022/03/27 10:49:16;;;;;;;8.80;5.38;;;;;;;;;;5000511;28;20419;-83
2022/03/27 10:51:43;;;;;;;10.82;6.57;;;;;;;;;;4987686;28;20034;-84
2022/03/27 10:54:11;;;;;;;17.85;11.20;;;;;;;;;;5000339;28;20022;-81
2022/03/27 10:56:37;;;;;;;10.55;5.60;;;;;;;;;;4999515;28;20160;-84
2022/03/27 10:59:17;;;;;;;12.20;7.97;;;;;;;;;;5000477;28;20069;-84
2022/03/27 11:01:44;;;;;;;11.02;5.57;;;;;;;;;;5000575;28;20015;-85
2022/03/27 11:04:11;;;;;;;18.77;7.07;;;;;;;;;;5000395;28;20022;-83
2022/03/27 11:06:43;;;;;;;9.70;6.30;;;;;;;;;;5000385;28;20038;-83
2022/03/27 11:09:12;;;;;;;8.32;5.05;;;;;;;;;;5000544;28;20034;-83
2022/03/27 11:11:38;;;;;;;14.82;7.47;;;;;;;;;;4999358;28;20030;-84
2022/03/27 11:14:04;;;;;;;15.88;8.07;;;;;;;;;;5000106;28;20035;-84
2022/03/27 11:16:30;;;;;;;12.00;6.97;;;;;;;;;;5000331;28;20439;-83
2022/03/27 11:18:58;;;;;;;10.43;5.40;;;;;;;;;;5000114;28;20027;-83
2022/03/27 11:21:28;;;;;;;8.48;5.45;;;;;;;;;;4998861;28;20037;-84
2022/03/27 11:24:15;;;;;;;9.02;5.30;;;;;;;;;;5000051;28;20056;-83
2022/03/27 11:26:41;;;;;;;11.07;5.43;;;;;;;;;;4943427;29;20069;-83
2022/03/27 11:29:25;;;;;;;9.35;5.18;;;;;;;;;;4959468;29;20098;-83
2022/03/27 11:32:07;;;;;;;7.35;4.45;;;;;;;;;;4959239;28;20039;-83
2022/03/27 11:34:34;;;;;;;9.95;4.90;;;;;;;;;;4959306;29;20027;-83
2022/03/27 11:37:22;;;;;;;10.40;5.28;;;;;;;;;;4943141;29;20344;-83
2022/03/27 11:39:49;;;;;;;8.05;4.63;;;;;;;;;;4943083;29;20034;-83
2022/03/27 11:42:25;;;;;;;7.40;4.75;;;;;;;;;;4959054;29;20066;-83
2022/03/27 11:45:10;;;;;;;9.88;4.30;;;;;;;;;;4943080;29;20037;-83
2022/03/27 11:47:38;;;;;;;10.00;5.38;;;;;;;;;;4959165;29;20377;-83
2022/03/27 11:50:04;;;;;;;8.18;4.43;;;;;;;;;;4959014;29;20035;-82
2022/03/27 11:52:30;;;;;;;8.85;4.55;;;;;;;;;;4942816;29;20031;-83
2022/03/27 11:55:03;;;;;;;6.07;4.07;;;;;;;;;;4959329;29;20023;-84
2022/03/27 11:57:40;;;;;;;7.28;4.53;;;;;;;;;;4943659;29;20082;-92
2022/03/27 12:00:07;;;;;;;7.78;4.60;;;;;;;;;;4959395;29;20079;-93
2022/03/27 12:02:40;;;;;;;7.57;4.38;;;;;;;;;;4959975;28;20389;-85
2022/03/27 12:05:06;;;;;;;8.90;4.15;;;;;;;;;;4998860;28;20059;-87
2022/03/27 12:08:02;;;;;;;7.00;4.13;;;;;;;;;;4998335;28;20054;-84
2022/03/27 12:10:29;;;;;;;12.07;4.72;;;;;;;;;;4942979;28;20073;-85
2022/03/27 12:12:59;;;;;;;7.57;4.80;;;;;;;;;;4942116;29;20039;-85
2022/03/27 12:15:41;;;;;;;13.63;4.88;;;;;;;;;;4943114;29;20405;-86
2022/03/27 12:18:07;;;;;;;9.88;4.63;;;;;;;;;;4958873;29;20472;-85
2022/03/27 12:20:46;;;;;;;8.52;4.65;;;;;;;;;;4942721;29;20039;-85
2022/03/27 12:23:30;;;;;;;7.38;4.10;;;;;;;;;;4958828;29;20051;-85
2022/03/27 12:31:55;;;;;;;5.82;4.10;;;;;;;;;;4958704;29;20043;-85
2022/03/27 12:34:21;;;;;;;6.90;4.90;;;;;;;;;;4958103;29;20407;-84
2022/03/27 12:37:16;;;;;;;9.00;4.60;;;;;;;;;;4957481;29;20042;-84
2022/03/27 12:39:48;;;;;;;12.38;7.00;;;;;;;;;;4901275;29;20129;-84
2022/03/27 12:42:14;;;;;;;;;;;;;;;;;;4901927;29;20312;-85
2022/03/27 12:44:47;;;;;;;6.32;4.03;;;;;;;;;;4901449;29;19915;-85
2022/03/27 12:47:14;;;;;;;7.13;4.25;;;;;;;;;;4898085;29;20047;-86
2022/03/27 12:49:50;;;;;;;11.20;5.05;;;;;;;;;;4904184;29;20048;-84
2022/03/27 12:52:17;;;;;;;7.43;4.78;;;;;;;;;;4904199;29;20047;-85
2022/03/27 12:54:57;;;;;;;9.07;5.47;;;;;;;;;;4920224;29;20028;-85
2022/03/27 12:57:23;;;;;;;11.98;5.07;;;;;;;;;;4919981;29;20159;-85
2022/03/27 12:59:49;;;;;;;11.77;5.28;;;;;;;;;;4904525;29;20055;-84
2022/03/27 13:02:27;;;;;;;11.27;6.15;;;;;;;;;;4919966;29;20111;-84
2022/03/27 13:04:57;;;;;;;13.23;4.80;;;;;;;;;;4919971;29;20039;-85
2022/03/27 13:07:45;;;;;;;5.65;4.53;;;;;;;;;;4919568;29;20091;-84
2022/03/27 13:10:12;;;;;;;7.22;4.70;;;;;;;;;;4919742;29;20159;-84
2022/03/27 13:12:38;;;;;;;9.98;5.10;;;;;;;;;;4919743;29;20040;-85
2022/03/27 13:15:04;;;;;;;8.43;4.78;;;;;;;;;;4925742;28;20116;-84
2022/03/27 13:17:30;;;;;;;11.60;4.97;;;;;;;;;;4998524;28;20099;-84
2022/03/27 13:19:56;;;;;;;7.50;4.40;;;;;;;;;;4998401;28;20072;-84
2022/03/27 13:22:24;;;;;;;9.25;5.18;;;;;;;;;;4997965;28;20027;-84
2022/03/27 13:24:50;;;;;;;8.40;4.63;;;;;;;;;;4997183;28;20045;-84
2022/03/27 13:27:16;;;;;;;9.18;5.00;;;;;;;;;;4997283;28;20022;-84
2022/03/27 13:29:42;;;;;;;9.82;5.13;;;;;;;;;;4998027;28;20073;-84
2022/03/27 13:32:09;;;;;;;5.07;4.47;;;;;;;;;;4998251;28;20034;-84
2022/03/27 13:34:35;;;;;;;9.02;5.30;;;;;;;;;;4998121;28;20026;-84
2022/03/27 13:37:02;;;;;;;11.63;5.20;;;;;;;;;;4997078;28;20026;-85
2022/03/27 13:39:30;;;;;;;9.43;4.68;;;;;;;;;;4998340;28;20072;-86
2022/03/27 13:44:44;;;;;;;25.25;7.60;;;;;;;;;;4997743;28;20448;-85
2022/03/27 13:47:12;;;;;;;8.73;5.60;;;;;;;;;;4996830;28;20034;-85
2022/03/27 13:49:38;;;;;;;13.15;5.57;;;;;;;;;;4997213;28;20030;-85
2022/03/27 13:52:07;;;;;;;7.78;4.75;;;;;;;;;;4997961;28;20105;-85
2022/03/27 13:54:33;;;;;;;9.73;5.18;;;;;;;;;;4996686;28;20552;-85
2022/03/27 13:56:59;;;;;;;5.97;4.85;;;;;;;;;;4997945;28;20337;-85
2022/03/27 13:59:25;;;;;;;9.07;4.35;;;;;;;;;;4997912;28;20483;-85
2022/03/27 14:01:52;;;;;;;15.15;5.20;;;;;;;;;;4997895;28;20053;-85
2022/03/27 14:04:18;;;;;;;9.20;4.80;;;;;;;;;;4998273;28;20038;-85
2022/03/27 14:06:45;;;;;;;9.77;4.50;;;;;;;;;;4997648;28;20086;-85
2022/03/27 14:09:11;;;;;;;17.35;5.70;;;;;;;;;;4997620;28;20053;-85
2022/03/27 14:11:40;;;;;;;11.90;5.07;;;;;;;;;;4997388;28;20404;-85
2022/03/27 14:14:06;;;;;;;8.25;4.93;;;;;;;;;;4975107;28;20042;-85
2022/03/27 14:16:35;;;;;;;7.55;3.78;;;;;;;;;;4959436;28;20027;-85
2022/03/27 14:19:01;;;;;;;9.13;4.40;;;;;;;;;;4978133;28;20077;-86
2022/03/27 14:21:28;;;;;;;8.07;4.75;;;;;;;;;;4978608;28;20039;-85
2022/03/27 14:23:54;;;;;;;8.20;4.80;;;;;;;;;;4978200;28;20361;-84
2022/03/27 14:26:20;;;;;;;7.63;4.07;;;;;;;;;;4977265;28;20373;-88
2022/03/27 14:28:46;;;;;;;10.82;3.92;;;;;;;;;;4978212;28;20031;-86
2022/03/27 14:31:12;;;;;;;5.70;3.28;;;;;;;;;;4978282;28;20027;-86
2022/03/27 14:33:38;;;;;;;11.88;3.75;;;;;;;;;;4978080;28;20118;-86
2022/03/27 14:36:04;;;;;;;8.88;4.07;;;;;;;;;;4980787;28;20025;-85
2022/03/27 14:38:31;;;;;;;8.52;5.60;;;;;;;;;;4981590;28;20023;-86
2022/03/27 14:40:58;;;;;;;6.78;4.40;;;;;;;;;;4981681;28;20027;-86
2022/03/27 14:43:25;;;;;;;7.65;4.63;;;;;;;;;;4980668;28;20031;-86
2022/03/27 14:45:54;;;;;;;7.20;4.00;;;;;;;;;;4980730;28;20026;-85
2022/03/27 14:48:21;;;;;;;9.55;4.35;;;;;;;;;;4980706;28;20430;-85
2022/03/27 14:50:47;;;;;;;15.27;4.22;;;;;;;;;;4980688;28;20031;-85
2022/03/27 14:53:13;;;;;;;12.45;5.68;;;;;;;;;;4980323;28;20454;-86
2022/03/27 14:55:57;;;;;;;14.75;4.55;;;;;;;;;;4981466;28;20102;-88